createdAt,value
2016-03-10T09:51:47.309Z,12.38
2016-03-10T09:52:47.296Z,11.76
2016-03-10T09:53:47.298Z,11.27
2016-03-10T09:54:47.284Z,10.86
2016-03-10T09:55:47.273Z,10.47
2016-03-10T09:56:47.259Z,10.05
2016-03-10T09:57:47.246Z,9.74
2016-03-10T09:58:47.249Z,9.32
2016-03-10T09:59:47.081Z,8.95
2016-03-10T10:00:47.254Z,8.79
2016-03-10T10:01:47.241Z,8.62
2016-03-10T10:02:47.260Z,8.37
2016-03-10T10:03:48.981Z,8.34
2016-03-10T10:04:47.375Z,8.34
2016-03-10T10:05:47.767Z,8.19
2016-03-10T10:06:47.583Z,8.07
2016-03-10T10:07:47.242Z,7.86
2016-03-10T10:08:47.729Z,7.72
2016-03-10T10:09:47.060Z,7.57
2016-03-10T10:10:47.203Z,7.48
2016-03-10T10:11:47.190Z,7.42
2016-03-10T10:13:48.680Z,7.34
2016-03-10T10:14:48.166Z,7.4
2016-03-10T10:15:47.185Z,7.43
2016-03-10T10:16:47.828Z,7.4
2016-03-10T10:17:47.910Z,7.31
2016-03-10T10:18:47.162Z,7.35
2016-03-10T10:19:47.149Z,7.28
2016-03-10T10:20:47.152Z,7.28
2016-03-10T10:21:47.201Z,7.31
2016-03-10T10:22:47.142Z,7.46
2016-03-10T10:23:47.113Z,7.57
2016-03-10T10:24:47.132Z,7.52
2016-03-10T10:25:47.118Z,7.53
2016-03-10T10:26:47.105Z,7.83
2016-03-10T10:27:47.108Z,7.82
2016-03-10T10:28:47.095Z,7.9
2016-03-10T10:29:47.098Z,7.82
2016-03-10T10:30:47.085Z,8.01
2016-03-10T10:31:47.087Z,7.97
2016-03-10T10:32:47.075Z,8.05
2016-03-10T10:33:47.062Z,8.02
2016-03-10T10:34:47.064Z,8.12
2016-03-10T10:35:47.052Z,8.12
2016-03-10T10:36:47.039Z,8.29
2016-03-10T10:37:47.025Z,8.34
2016-03-10T10:38:48.200Z,8.44
2016-03-10T10:39:48.484Z,8.41
2016-03-10T10:41:01.974Z,8.53
2016-03-10T10:41:47.318Z,8.47
2016-03-10T10:42:47.008Z,8.44
2016-03-10T10:43:47.041Z,8.38
2016-03-10T10:44:46.982Z,8.36
2016-03-10T10:45:47.016Z,8.37
2016-03-10T10:46:47.002Z,8.22
2016-03-10T10:47:48.006Z,8.18
2016-03-10T10:48:47.321Z,8.12
2016-03-10T10:49:46.980Z,8.05
2016-03-10T10:50:47.310Z,7.93
2016-03-10T10:52:01.144Z,7.98
2016-03-10T10:52:47.363Z,8.01
2016-03-10T10:53:46.943Z,8
2016-03-10T10:54:47.196Z,8.02
2016-03-10T10:55:46.981Z,8.26
2016-03-10T10:56:46.952Z,8.29
2016-03-10T10:57:46.939Z,8.29
2016-03-10T10:58:46.926Z,8.1
2016-03-10T10:59:46.944Z,8.2
2016-03-10T11:00:46.915Z,8.19
2016-03-10T11:01:46.918Z,8.33
2016-03-10T11:02:46.921Z,8.36
2016-03-10T11:03:46.924Z,8.47
2016-03-10T11:04:46.895Z,8.52
2016-03-10T11:05:46.898Z,8.43
2016-03-10T11:06:46.885Z,8.44
2016-03-10T11:07:46.872Z,8.47
2016-03-10T11:08:46.890Z,8.47
2016-03-10T11:09:46.862Z,8.47
2016-03-10T11:10:46.880Z,8.58
2016-03-10T11:11:46.851Z,8.63
2016-03-10T11:12:46.854Z,8.62
2016-03-10T11:13:46.841Z,8.52
2016-03-10T11:14:46.844Z,8.43
2016-03-10T11:15:46.831Z,8.26
2016-03-10T11:16:46.833Z,8.25
2016-03-10T11:17:46.821Z,8.26
2016-03-10T11:18:46.808Z,8.33
2016-03-10T11:19:46.810Z,8.3
2016-03-10T11:20:46.813Z,8.37
2016-03-10T11:21:46.784Z,8.53
2016-03-10T11:22:46.803Z,8.73
2016-03-10T11:23:48.009Z,8.77
2016-03-10T11:24:48.387Z,9.02
2016-03-10T11:25:46.795Z,9.26
2016-03-10T11:26:47.735Z,9.33
2016-03-10T11:27:46.785Z,9.4
2016-03-10T11:28:47.070Z,9.58
2016-03-10T11:29:46.759Z,9.76
2016-03-10T11:30:46.778Z,9.76
2016-03-10T11:31:46.749Z,9.64
2016-03-10T11:32:46.767Z,9.54
2016-03-10T11:33:46.754Z,9.6
2016-03-10T11:34:47.961Z,9.64
2016-03-10T11:35:46.744Z,9.42
2016-03-10T11:36:46.731Z,9.51
2016-03-10T11:37:46.719Z,9.4
2016-03-10T11:38:46.737Z,9.43
2016-03-10T11:39:46.724Z,9.43
2016-03-10T11:40:46.727Z,9.57
2016-03-10T11:41:46.697Z,9.68
2016-03-10T11:42:46.732Z,9.57
2016-03-10T11:43:46.703Z,9.54
2016-03-10T11:44:46.705Z,9.6
2016-03-10T11:45:46.708Z,9.6
2016-03-10T11:46:46.696Z,9.72
2016-03-10T11:47:46.698Z,9.72
2016-03-10T11:48:46.685Z,9.66
2016-03-10T11:49:46.688Z,9.66
2016-03-10T11:50:46.675Z,9.6
2016-03-10T11:51:46.677Z,9.57
2016-03-10T11:52:46.665Z,9.6
2016-03-10T11:53:47.355Z,9.61
2016-03-10T11:54:46.671Z,9.58
2016-03-10T11:55:46.501Z,9.64
2016-03-10T11:56:46.660Z,9.64
2016-03-10T11:57:48.538Z,9.79
2016-03-10T11:58:46.651Z,9.78
2016-03-10T11:59:46.621Z,9.93
2016-03-10T12:01:00.843Z,9.83
2016-03-10T12:01:46.737Z,9.86
2016-03-10T12:02:46.739Z,9.84
2016-03-10T12:03:46.648Z,9.87
2016-03-10T12:04:46.634Z,9.86
2016-03-10T12:05:46.607Z,9.86
2016-03-10T12:06:48.061Z,9.76
2016-03-10T12:07:47.284Z,9.66
2016-03-10T12:08:46.615Z,9.72
2016-03-10T12:09:47.022Z,9.68
2016-03-10T12:10:47.058Z,9.74
2016-03-10T12:11:46.606Z,9.74
2016-03-10T12:12:46.608Z,9.97
2016-03-10T12:13:46.596Z,9.91
2016-03-10T12:14:46.599Z,10.04
2016-03-10T12:15:46.586Z,10.02
2016-03-10T12:16:46.588Z,9.86
2016-03-10T12:17:46.592Z,9.74
2016-03-10T12:18:46.579Z,9.61
2016-03-10T12:19:46.597Z,9.53
2016-03-10T12:20:46.569Z,9.38
2016-03-10T12:21:46.571Z,9.21
2016-03-10T12:22:46.574Z,9.1
2016-03-10T12:23:46.561Z,9.04
2016-03-10T12:24:46.563Z,8.98
2016-03-10T12:25:46.566Z,8.96
2016-03-10T12:26:46.554Z,8.89
2016-03-10T12:27:46.556Z,9.02
2016-03-10T12:28:46.543Z,8.99
2016-03-10T12:29:46.546Z,9.01
2016-03-10T12:30:46.549Z,9.02
2016-03-10T12:31:46.551Z,8.99
2016-03-10T12:32:46.523Z,8.87
2016-03-10T12:33:46.526Z,8.83
2016-03-10T12:34:46.497Z,8.92
2016-03-10T12:35:46.500Z,8.92
2016-03-10T12:36:46.503Z,8.83
2016-03-10T12:37:46.520Z,8.83
2016-03-10T12:38:46.508Z,8.84
2016-03-10T12:39:46.511Z,8.8
2016-03-10T12:40:46.514Z,8.81
2016-03-10T12:41:47.500Z,8.81
2016-03-10T12:42:48.769Z,8.92
2016-03-10T12:43:46.506Z,8.94
2016-03-10T12:44:46.461Z,8.84
2016-03-10T12:45:46.464Z,8.79
2016-03-10T12:46:47.076Z,8.83
2016-03-10T12:47:46.532Z,8.76
2016-03-10T12:48:46.456Z,8.73
2016-03-10T12:49:46.458Z,8.76
2016-03-10T12:50:46.477Z,8.74
2016-03-10T12:51:47.246Z,8.77
2016-03-10T12:52:46.733Z,8.66
2016-03-10T12:53:46.424Z,8.79
2016-03-10T12:54:46.863Z,8.79
2016-03-10T12:55:47.194Z,8.89
2016-03-10T12:56:46.431Z,8.98
2016-03-10T12:57:46.434Z,9.1
2016-03-10T12:58:46.420Z,9.14
2016-03-10T12:59:46.392Z,9.32
2016-03-10T13:00:46.410Z,9.4
2016-03-10T13:01:46.413Z,9.46
2016-03-10T13:02:46.401Z,9.42
2016-03-10T13:03:46.388Z,9.57
2016-03-10T13:04:46.421Z,9.64
2016-03-10T13:05:46.377Z,9.71
2016-03-10T13:06:46.395Z,9.78
2016-03-10T13:07:46.382Z,9.99
2016-03-10T13:08:46.385Z,10.08
2016-03-10T13:09:46.342Z,10.26
2016-03-10T13:10:46.359Z,10.44
2016-03-10T13:11:46.347Z,10.67
2016-03-10T13:12:46.349Z,10.68
2016-03-10T13:13:46.343Z,10.52
2016-03-10T13:14:46.361Z,10.4
2016-03-10T13:15:46.333Z,10.36
2016-03-10T13:17:00.930Z,10.44
2016-03-10T13:17:46.322Z,10.45
2016-03-10T13:18:46.325Z,10.42
2016-03-10T13:19:46.328Z,10.6
2016-03-10T13:20:46.612Z,10.74
2016-03-10T13:21:46.677Z,10.7
2016-03-10T13:22:46.555Z,10.76
2016-03-10T13:23:46.510Z,10.71
2016-03-10T13:24:46.310Z,10.73
2016-03-10T13:25:48.203Z,10.67
2016-03-10T13:26:47.363Z,10.53
2016-03-10T13:27:46.428Z,10.44
2016-03-10T13:28:47.165Z,10.42
2016-03-10T13:30:46.622Z,10.38
2016-03-10T13:31:46.266Z,10.47
2016-03-10T13:32:46.300Z,10.47
2016-03-10T13:33:46.256Z,10.48
2016-03-10T13:34:46.274Z,10.51
2016-03-10T13:35:46.261Z,10.56
2016-03-10T13:36:46.265Z,10.44
2016-03-10T13:37:46.266Z,10.34
2016-03-10T13:38:46.253Z,10.34
2016-03-10T13:39:46.241Z,10.27
2016-03-10T13:40:46.244Z,10.27
2016-03-10T13:41:46.247Z,10.29
2016-03-10T13:42:46.234Z,10.23
2016-03-10T13:43:46.252Z,10.23
2016-03-10T13:44:46.255Z,10.18
2016-03-10T13:45:46.227Z,10.18
2016-03-10T13:46:46.244Z,10.27
2016-03-10T13:47:46.200Z,10.47
2016-03-10T13:48:46.218Z,10.59
2016-03-10T13:49:46.221Z,10.74
2016-03-10T13:50:46.207Z,11.03
2016-03-10T13:51:46.461Z,11.29
2016-03-10T13:52:46.198Z,11.49
2016-03-10T13:53:46.216Z,11.67
2016-03-10T13:54:46.188Z,11.79
2016-03-10T13:55:46.190Z,11.83
2016-03-10T13:56:46.193Z,12.01
2016-03-10T13:57:46.462Z,11.96
2016-03-10T13:58:46.214Z,11.91
2016-03-10T13:59:46.185Z,11.75
2016-03-10T14:00:48.062Z,11.46
2016-03-10T14:01:46.300Z,11.32
2016-03-10T14:02:47.084Z,11.1
2016-03-10T14:03:47.212Z,10.85
2016-03-10T14:04:46.293Z,10.76
2016-03-10T14:05:46.936Z,10.74
2016-03-10T14:06:46.169Z,10.68
2016-03-10T14:07:46.188Z,10.7
2016-03-10T14:08:46.175Z,10.7
2016-03-10T14:09:46.162Z,10.76
2016-03-10T14:10:47.587Z,10.64
2016-03-10T14:11:46.995Z,10.51
2016-03-10T14:12:46.137Z,10.42
2016-03-10T14:13:47.250Z,10.32
2016-03-10T14:14:46.815Z,10.26
2016-03-10T14:15:46.131Z,10.23
2016-03-10T14:16:46.118Z,10.18
2016-03-10T14:17:46.120Z,10.2
2016-03-10T14:18:46.217Z,10.27
2016-03-10T14:19:46.110Z,10.23
2016-03-10T14:20:46.128Z,10.17
2016-03-10T14:21:46.116Z,10.12
2016-03-10T14:22:46.119Z,10.05
2016-03-10T14:23:46.106Z,10.02
2016-03-10T14:24:46.108Z,10.04
2016-03-10T14:25:46.111Z,9.84
2016-03-10T14:26:45.363Z,9.79
2016-03-10T14:27:46.116Z,9.74
2016-03-10T14:28:46.056Z,9.66
2016-03-10T14:29:46.091Z,9.53
2016-03-10T14:30:46.061Z,9.48
2016-03-10T14:31:46.064Z,9.39
2016-03-10T14:32:46.051Z,9.46
2016-03-10T14:33:46.085Z,9.36
2016-03-10T14:34:46.072Z,9.43
2016-03-10T14:36:46.391Z,9.4
2016-03-10T14:37:46.441Z,9.4
2016-03-10T14:38:46.037Z,9.4
2016-03-10T14:39:46.477Z,9.35
2016-03-10T14:40:46.026Z,9.43
2016-03-10T14:41:46.029Z,9.47
2016-03-10T14:42:46.016Z,9.5
2016-03-10T14:43:46.003Z,9.71
2016-03-10T14:45:00.943Z,9.9
2016-03-10T14:46:00.196Z,10.01
2016-03-10T14:46:46.449Z,10.08
2016-03-10T14:47:45.999Z,10.23
2016-03-10T14:48:46.251Z,10.33
2016-03-10T14:50:46.195Z,10.44
2016-03-10T14:51:46.087Z,10.6
2016-03-10T14:52:46.090Z,10.48
2016-03-10T14:53:45.967Z,10.51
2016-03-10T14:54:45.955Z,10.53
2016-03-10T14:55:45.972Z,10.56
2016-03-10T14:56:45.944Z,10.61
2016-03-10T14:57:45.963Z,10.55
2016-03-10T14:58:45.949Z,10.6
2016-03-10T14:59:45.936Z,10.64
2016-03-10T15:00:45.939Z,10.67
2016-03-10T15:01:45.941Z,10.73
2016-03-10T15:02:45.929Z,10.68
2016-03-10T15:03:45.932Z,10.68
2016-03-10T15:04:45.934Z,10.67
2016-03-10T15:05:45.922Z,10.64
2016-03-10T15:06:45.924Z,10.48
2016-03-10T15:07:45.927Z,10.56
2016-03-10T15:08:45.914Z,10.51
2016-03-10T15:09:45.901Z,10.6
2016-03-10T15:10:45.919Z,10.67
2016-03-10T15:11:45.907Z,10.63
2016-03-10T15:12:45.893Z,10.61
2016-03-10T15:13:45.896Z,10.63
2016-03-10T15:14:45.898Z,10.66
2016-03-10T15:15:45.871Z,10.63
2016-03-10T15:16:45.889Z,10.64
2016-03-10T15:17:45.876Z,10.68
2016-03-10T15:18:45.879Z,10.81
2016-03-10T15:19:46.162Z,10.74
2016-03-10T15:20:47.743Z,10.67
2016-03-10T15:21:45.856Z,10.71
2016-03-10T15:22:46.061Z,10.53
2016-03-10T15:23:45.861Z,10.53
2016-03-10T15:24:46.270Z,10.48
2016-03-10T15:25:45.834Z,10.55
2016-03-10T15:26:45.853Z,10.59
2016-03-10T15:27:45.840Z,10.55
2016-03-10T15:28:45.843Z,10.59
2016-03-10T15:29:46.689Z,10.61
2016-03-10T15:30:45.817Z,10.63
2016-03-10T15:31:47.305Z,10.66
2016-03-10T15:32:46.025Z,10.71
2016-03-10T15:33:46.716Z,10.6
2016-03-10T15:34:46.219Z,10.53
2016-03-10T15:35:45.799Z,10.4
2016-03-10T15:36:45.802Z,10.41
2016-03-10T15:37:45.789Z,10.23
2016-03-10T15:38:45.791Z,10.25
2016-03-10T15:39:45.810Z,10.17
2016-03-10T15:40:45.782Z,10.11
2016-03-10T15:41:45.784Z,10.05
2016-03-10T15:42:45.771Z,10.12
2016-03-10T15:43:45.774Z,10.05
2016-03-10T15:44:45.777Z,10.04
2016-03-10T15:45:45.795Z,10.05
2016-03-10T15:46:45.751Z,9.96
2016-03-10T15:47:45.769Z,10.02
2016-03-10T15:48:45.756Z,9.96
2016-03-10T15:49:45.743Z,10.02
2016-03-10T15:50:45.731Z,9.97
2016-03-10T15:51:45.749Z,9.84
2016-03-10T15:52:45.767Z,9.87
2016-03-10T15:53:45.739Z,9.91
2016-03-10T15:54:46.367Z,9.87
2016-03-10T15:55:59.915Z,9.83
2016-03-10T15:56:46.465Z,9.75
2016-03-10T15:57:59.890Z,9.69
2016-03-10T15:58:45.783Z,9.64
2016-03-10T15:59:46.005Z,9.6
2016-03-10T16:00:45.960Z,9.58
2016-03-10T16:01:45.697Z,9.5
2016-03-10T16:02:45.700Z,9.43
2016-03-10T16:03:46.984Z,9.48
2016-03-10T16:04:59.908Z,9.32
2016-03-10T16:06:14.599Z,9.32
2016-03-10T16:06:45.695Z,9.33
2016-03-10T16:07:46.214Z,9.21
2016-03-10T16:08:46.186Z,9.26
2016-03-10T16:09:45.688Z,9.21
2016-03-10T16:10:45.644Z,9.14
2016-03-10T16:11:45.647Z,9.05
2016-03-10T16:12:45.633Z,8.98
2016-03-10T16:13:45.636Z,8.99
2016-03-10T16:14:45.639Z,8.92
2016-03-10T16:15:45.626Z,8.91
2016-03-10T16:16:45.613Z,8.8
2016-03-10T16:17:45.616Z,8.84
2016-03-10T16:18:45.618Z,8.8
2016-03-10T16:19:45.604Z,8.86
2016-03-10T16:20:45.593Z,8.71
2016-03-10T16:21:45.611Z,8.7
2016-03-10T16:22:45.582Z,8.7
2016-03-10T16:23:45.600Z,8.65
2016-03-10T16:24:45.572Z,8.62
2016-03-10T16:25:45.575Z,8.61
2016-03-10T16:26:45.593Z,8.58
2016-03-10T16:27:45.581Z,8.55
2016-03-10T16:28:45.567Z,8.48
2016-03-10T16:29:45.554Z,8.43
2016-03-10T16:30:45.556Z,8.44
2016-03-10T16:31:45.559Z,8.43
2016-03-10T16:32:45.532Z,8.34
2016-03-10T16:33:45.565Z,8.33
2016-03-10T16:34:45.537Z,8.33
2016-03-10T16:35:45.524Z,8.3
2016-03-10T16:36:45.511Z,8.28
2016-03-10T16:37:45.545Z,8.19
2016-03-10T16:38:46.829Z,8.25
2016-03-10T16:39:45.972Z,8.22
2016-03-10T16:40:46.911Z,8.28
2016-03-10T16:41:45.494Z,8.15
2016-03-10T16:42:45.464Z,8.15
2016-03-10T16:43:45.624Z,8.12
2016-03-10T16:44:45.469Z,8.12
2016-03-10T16:45:45.675Z,8.15
2016-03-10T16:46:45.569Z,8.02
2016-03-10T16:47:45.431Z,8.12
2016-03-10T16:48:45.777Z,8.15
2016-03-10T16:49:46.015Z,8.01
2016-03-10T16:50:45.580Z,8.04
2016-03-10T16:51:45.411Z,8.01
2016-03-10T16:52:45.578Z,8.08
2016-03-10T16:53:45.393Z,8.01
2016-03-10T16:54:45.458Z,8.02
2016-03-10T16:55:45.352Z,8.05
2016-03-10T16:56:45.323Z,8
2016-03-10T16:57:45.315Z,8.04
2016-03-10T16:58:45.296Z,8.01
2016-03-10T16:59:45.279Z,8.04
2016-03-10T17:00:45.276Z,8.02
2016-03-10T17:01:45.240Z,8
2016-03-10T17:02:45.240Z,8.02
2016-03-10T17:03:45.240Z,8.02
2016-03-10T17:04:45.241Z,7.98
2016-03-10T17:05:45.227Z,7.98
2016-03-10T17:06:45.211Z,8
2016-03-10T17:07:45.213Z,7.97
2016-03-10T17:08:45.200Z,7.95
2016-03-10T17:09:45.185Z,7.97
2016-03-10T17:10:45.188Z,7.93
2016-03-10T17:11:45.159Z,7.98
2016-03-10T17:12:45.191Z,7.9
2016-03-10T17:13:45.756Z,7.87
2016-03-10T17:14:45.149Z,7.83
2016-03-10T17:15:45.152Z,7.8
2016-03-10T17:16:45.138Z,7.75
2016-03-10T17:17:59.328Z,7.87
2016-03-10T17:18:45.128Z,7.75
2016-03-10T17:19:45.146Z,7.8
2016-03-10T17:20:45.102Z,7.77
2016-03-10T17:21:45.120Z,7.83
2016-03-10T17:23:00.529Z,7.71
2016-03-10T17:23:45.095Z,7.75
2016-03-10T17:24:45.081Z,7.71
2016-03-10T17:25:45.678Z,7.82
2016-03-10T17:26:59.259Z,7.72
2016-03-10T17:27:45.089Z,7.67
2016-03-10T17:28:45.077Z,7.64
2016-03-10T17:29:45.079Z,7.71
2016-03-10T17:30:45.036Z,7.67
2016-03-10T17:31:45.053Z,7.71
2016-03-10T17:32:45.041Z,7.68
2016-03-10T17:33:45.012Z,7.55
2016-03-10T17:34:45.015Z,7.61
2016-03-10T17:35:45.018Z,7.67
2016-03-10T17:36:45.035Z,7.72
2016-03-10T17:37:45.007Z,7.53
2016-03-10T17:38:44.994Z,7.6
2016-03-10T17:39:44.981Z,7.6
2016-03-10T17:40:44.985Z,7.61
2016-03-10T17:41:44.971Z,7.67
2016-03-10T17:42:44.973Z,7.64
2016-03-10T17:43:44.961Z,7.71
2016-03-10T17:44:44.948Z,7.79
2016-03-10T17:45:44.934Z,7.75
2016-03-10T17:46:44.969Z,7.71
2016-03-10T17:47:44.925Z,7.64
2016-03-10T17:48:44.943Z,7.58
2016-03-10T17:49:44.915Z,7.6
2016-03-10T17:50:44.917Z,7.61
2016-03-10T17:51:44.920Z,7.57
2016-03-10T17:52:44.906Z,7.5
2016-03-10T17:53:44.894Z,7.57
2016-03-10T17:54:44.865Z,7.52
2016-03-10T17:55:44.867Z,7.58
2016-03-10T17:56:44.871Z,7.57
2016-03-10T17:58:46.204Z,7.46
2016-03-10T17:59:44.848Z,7.46
2016-03-10T18:00:45.413Z,7.43
2016-03-10T18:01:45.618Z,7.39
2016-03-10T18:02:45.075Z,7.35
2016-03-10T18:03:45.171Z,7.28
2016-03-10T18:04:44.814Z,7.28
2016-03-10T18:05:44.817Z,7.31
2016-03-10T18:06:44.788Z,7.31
2016-03-10T18:07:46.650Z,7.21
2016-03-10T18:08:46.888Z,7.28
2016-03-10T18:09:44.780Z,7.25
2016-03-10T18:10:45.532Z,7.23
2016-03-10T18:11:44.771Z,7.28
2016-03-10T18:12:44.757Z,7.3
2016-03-10T18:13:44.760Z,7.15
2016-03-10T18:14:44.732Z,7.17
2016-03-10T18:15:44.734Z,7.21
2016-03-10T18:16:44.737Z,7.21
2016-03-10T18:17:44.724Z,7.13
2016-03-10T18:18:44.539Z,7.17
2016-03-10T18:19:44.729Z,7.23
2016-03-10T18:20:44.701Z,7.25
2016-03-10T18:21:44.704Z,7.21
2016-03-10T18:22:44.675Z,7.21
2016-03-10T18:23:44.694Z,7.17
2016-03-10T18:24:44.666Z,7.12
2016-03-10T18:25:44.668Z,7.16
2016-03-10T18:26:44.670Z,7.07
2016-03-10T18:27:44.643Z,7.1
2016-03-10T18:28:44.645Z,7.16
2016-03-10T18:29:44.617Z,7.06
2016-03-10T18:30:44.635Z,7.1
2016-03-10T18:31:44.622Z,7.15
2016-03-10T18:32:46.062Z,7.05
2016-03-10T18:33:44.612Z,7.06
2016-03-10T18:34:45.036Z,7.06
2016-03-10T18:35:45.070Z,7.1
2016-03-10T18:36:44.604Z,7.06
2016-03-10T18:37:44.591Z,7.16
2016-03-10T18:38:44.563Z,7.06
2016-03-10T18:39:44.831Z,7.21
2016-03-10T18:40:44.536Z,7.03
2016-03-10T18:41:44.540Z,7.05
2016-03-10T18:42:44.558Z,7.1
2016-03-10T18:43:44.513Z,7.03
2016-03-10T18:44:59.016Z,7.16
2016-03-10T18:45:44.519Z,7.1
2016-03-10T18:46:44.538Z,7.09
2016-03-10T18:47:44.508Z,7.09
2016-03-10T18:48:44.761Z,7.06
2016-03-10T18:49:44.514Z,7.06
2016-03-10T18:50:44.470Z,7.05
2016-03-10T18:51:44.488Z,7.05
2016-03-10T18:52:44.460Z,7.05
2016-03-10T18:53:44.462Z,7.03
2016-03-10T18:54:44.466Z,6.98
2016-03-10T18:55:44.452Z,6.91
2016-03-10T18:56:44.454Z,6.98
2016-03-10T18:57:44.427Z,6.94
2016-03-10T18:58:44.429Z,6.95
2016-03-10T18:59:44.415Z,6.99
2016-03-10T19:00:44.419Z,6.97
2016-03-10T19:01:44.406Z,6.95
2016-03-10T19:02:44.424Z,7.06
2016-03-10T19:03:44.380Z,7.05
2016-03-10T19:04:44.398Z,7.03
2016-03-10T19:05:44.353Z,6.97
2016-03-10T19:06:44.357Z,7.05
2016-03-10T19:07:44.359Z,6.95
2016-03-10T19:08:44.330Z,6.99
2016-03-10T19:09:44.350Z,7.03
2016-03-10T19:10:44.352Z,6.99
2016-03-10T19:11:44.339Z,6.95
2016-03-10T19:12:44.311Z,6.98
2016-03-10T19:13:44.313Z,6.97
2016-03-10T19:14:44.300Z,6.89
2016-03-10T19:15:44.366Z,6.94
2016-03-10T19:17:45.136Z,6.97
2016-03-10T19:18:44.526Z,6.95
2016-03-10T19:19:45.158Z,6.87
2016-03-10T19:20:53.616Z,6.95
2016-03-10T19:21:44.832Z,6.98
2016-03-10T19:22:44.883Z,6.99
2016-03-10T19:23:44.414Z,7.02
2016-03-10T19:24:44.447Z,6.95
2016-03-10T19:25:44.216Z,7.02
2016-03-10T19:26:46.472Z,7.02
2016-03-10T19:27:44.206Z,6.94
2016-03-10T19:28:44.177Z,6.98
2016-03-10T19:29:45.038Z,6.89
2016-03-10T19:30:44.136Z,6.97
2016-03-10T19:31:44.154Z,6.94
2016-03-10T19:32:44.157Z,6.94
2016-03-10T19:33:44.144Z,6.97
2016-03-10T19:34:44.146Z,6.94
2016-03-10T19:35:44.133Z,6.81
2016-03-10T19:36:44.121Z,6.79
2016-03-10T19:37:44.129Z,6.91
2016-03-10T19:38:44.099Z,6.94
2016-03-10T19:39:44.117Z,6.88
2016-03-10T19:40:44.074Z,6.85
2016-03-10T19:41:44.107Z,6.88
2016-03-10T19:42:43.907Z,6.91
2016-03-10T19:43:44.066Z,6.85
2016-03-10T19:44:44.037Z,6.87
2016-03-10T19:45:44.071Z,6.87
2016-03-10T19:46:44.058Z,6.81
2016-03-10T19:47:44.045Z,6.8
2016-03-10T19:48:44.017Z,6.84
2016-03-10T19:49:44.019Z,6.85
2016-03-10T19:50:44.022Z,6.85
2016-03-10T19:51:43.994Z,6.92
2016-03-10T19:52:43.997Z,6.92
2016-03-10T19:53:43.999Z,6.84
2016-03-10T19:54:43.971Z,6.79
2016-03-10T19:55:43.989Z,6.77
2016-03-10T19:56:43.977Z,6.8
2016-03-10T19:57:43.948Z,6.8
2016-03-10T19:58:43.966Z,6.8
2016-03-10T19:59:43.953Z,6.8
2016-03-10T20:00:43.924Z,6.73
2016-03-10T20:01:43.943Z,6.77
2016-03-10T20:02:43.946Z,6.64
2016-03-10T20:03:43.917Z,6.74
2016-03-10T20:04:43.904Z,6.73
2016-03-10T20:05:43.891Z,6.7
2016-03-10T20:06:43.908Z,6.74
2016-03-10T20:07:43.948Z,6.73
2016-03-10T20:08:43.904Z,6.73
2016-03-10T20:09:43.860Z,6.7
2016-03-10T20:10:43.862Z,6.71
2016-03-10T20:11:43.864Z,6.7
2016-03-10T20:12:43.836Z,6.7
2016-03-10T20:13:43.855Z,6.71
2016-03-10T20:14:43.825Z,6.7
2016-03-10T20:15:43.828Z,6.71
2016-03-10T20:16:43.800Z,6.7
2016-03-10T20:17:43.819Z,6.74
2016-03-10T20:18:43.790Z,6.69
2016-03-10T20:19:43.808Z,6.67
2016-03-10T20:20:43.780Z,6.66
2016-03-10T20:21:43.783Z,6.73
2016-03-10T20:22:43.801Z,6.7
2016-03-10T20:23:43.772Z,6.62
2016-03-10T20:24:43.775Z,6.67
2016-03-10T20:25:43.746Z,6.64
2016-03-10T20:26:43.749Z,6.73
2016-03-10T20:27:43.736Z,6.69
2016-03-10T20:28:43.708Z,6.62
2016-03-10T20:29:43.742Z,6.58
2016-03-10T20:30:43.698Z,6.56
2016-03-10T20:31:43.701Z,6.64
2016-03-10T20:32:43.688Z,6.64
2016-03-10T20:33:43.690Z,6.64
2016-03-10T20:34:43.677Z,6.59
2016-03-10T20:36:44.464Z,6.64
2016-03-10T20:37:43.826Z,6.61
2016-03-10T20:38:44.516Z,6.66
2016-03-10T20:39:44.675Z,6.58
2016-03-10T20:40:44.256Z,6.64
2016-03-10T20:41:43.649Z,6.64
2016-03-10T20:42:43.855Z,6.58
2016-03-10T20:43:43.608Z,6.61
2016-03-10T20:44:43.595Z,6.58
2016-03-10T20:45:45.910Z,6.59
2016-03-10T20:46:43.569Z,6.56
2016-03-10T20:47:43.587Z,6.69
2016-03-10T20:48:44.590Z,6.71
2016-03-10T20:49:43.577Z,6.62
2016-03-10T20:50:43.564Z,6.64
2016-03-10T20:51:43.800Z,6.64
2016-03-10T20:52:45.319Z,6.61
2016-03-10T20:53:43.541Z,6.59
2016-03-10T20:54:43.527Z,6.56
2016-03-10T20:55:43.530Z,6.56
2016-03-10T20:56:43.907Z,6.56
2016-03-10T20:57:43.816Z,6.44
2016-03-10T20:58:43.491Z,6.49
2016-03-10T20:59:43.635Z,6.55
2016-03-10T21:00:43.465Z,6.43
2016-03-10T21:01:45.171Z,6.46
2016-03-10T21:02:45.037Z,6.48
2016-03-10T21:03:43.775Z,6.55
2016-03-10T21:04:43.434Z,6.46
2016-03-10T21:05:43.437Z,6.55
2016-03-10T21:06:43.439Z,6.48
2016-03-10T21:07:43.411Z,6.54
2016-03-10T21:08:43.428Z,6.51
2016-03-10T21:09:43.416Z,6.44
2016-03-10T21:10:43.403Z,6.48
2016-03-10T21:11:43.390Z,6.48
2016-03-10T21:12:43.424Z,6.54
2016-03-10T21:13:43.379Z,6.46
2016-03-10T21:14:43.366Z,6.48
2016-03-10T21:15:43.354Z,6.49
2016-03-10T21:16:43.372Z,6.52
2016-03-10T21:17:42.609Z,6.51
2016-03-10T21:18:43.330Z,6.52
2016-03-10T21:19:43.349Z,6.54
2016-03-10T21:20:43.321Z,6.49
2016-03-10T21:21:43.323Z,6.48
2016-03-10T21:22:43.310Z,6.54
2016-03-10T21:23:43.298Z,6.55
2016-03-10T21:24:43.316Z,6.56
2016-03-10T21:25:43.287Z,6.55
2016-03-10T21:26:43.306Z,6.55
2016-03-10T21:27:43.261Z,6.64
2016-03-10T21:28:43.279Z,6.62
2016-03-10T21:29:43.250Z,6.62
2016-03-10T21:30:43.254Z,6.64
2016-03-10T21:31:43.240Z,6.61
2016-03-10T21:32:43.243Z,6.66
2016-03-10T21:33:43.245Z,6.66
2016-03-10T21:34:43.217Z,6.59
2016-03-10T21:35:43.189Z,6.59
2016-03-10T21:36:43.208Z,6.64
2016-03-10T21:37:43.210Z,6.61
2016-03-10T21:38:43.197Z,6.66
2016-03-10T21:39:43.199Z,6.64
2016-03-10T21:40:43.156Z,6.62
2016-03-10T21:41:43.158Z,6.61
2016-03-10T21:42:43.160Z,6.69
2016-03-10T21:43:43.132Z,6.66
2016-03-10T21:44:43.150Z,6.71
2016-03-10T21:45:43.121Z,6.67
2016-03-10T21:46:43.125Z,6.71
2016-03-10T21:47:43.097Z,6.69
2016-03-10T21:48:43.130Z,6.73
2016-03-10T21:49:43.132Z,6.67
2016-03-10T21:50:43.104Z,6.7
2016-03-10T21:51:43.076Z,6.74
2016-03-10T21:52:43.093Z,6.73
2016-03-10T21:53:43.065Z,6.69
2016-03-10T21:55:43.851Z,6.66
2016-03-10T21:56:43.307Z,6.56
2016-03-10T21:57:43.920Z,6.62
2016-03-10T21:58:44.062Z,6.64
2016-03-10T21:59:43.675Z,6.55
2016-03-10T22:00:43.022Z,6.61
2016-03-10T22:01:43.290Z,6.55
2016-03-10T22:02:42.995Z,6.56
2016-03-10T22:03:42.998Z,6.58
2016-03-10T22:04:45.266Z,6.58
2016-03-10T22:05:43.003Z,6.59
2016-03-10T22:06:42.959Z,6.64
2016-03-10T22:07:44.041Z,6.66
2016-03-10T22:08:42.949Z,6.62
2016-03-10T22:09:42.983Z,6.62
2016-03-10T22:10:42.970Z,6.71
2016-03-10T22:11:42.926Z,6.69
2016-03-10T22:12:43.085Z,6.62
2016-03-10T22:13:43.228Z,6.67
2016-03-10T22:14:43.221Z,6.67
2016-03-10T22:15:42.911Z,6.66
2016-03-10T22:16:43.085Z,6.66
2016-03-10T22:17:42.885Z,6.58
2016-03-10T22:18:42.888Z,6.55
2016-03-10T22:19:42.874Z,6.59
2016-03-10T22:20:56.893Z,6.58
2016-03-10T22:21:42.880Z,6.62
2016-03-10T22:22:57.335Z,6.62
2016-03-10T22:23:42.995Z,6.64
2016-03-10T22:24:57.465Z,6.62
2016-03-10T22:25:43.140Z,6.59
2016-03-10T22:26:42.831Z,6.62
2016-03-10T22:27:42.817Z,6.58
2016-03-10T22:28:42.820Z,6.51
2016-03-10T22:29:42.776Z,6.58
2016-03-10T22:30:42.810Z,6.55
2016-03-10T22:31:42.766Z,6.52
2016-03-10T22:32:42.769Z,6.52
2016-03-10T22:33:42.772Z,6.56
2016-03-10T22:34:42.758Z,6.55
2016-03-10T22:35:42.731Z,6.52
2016-03-10T22:36:42.733Z,6.54
2016-03-10T22:37:42.783Z,6.51
2016-03-10T22:38:42.739Z,6.51
2016-03-10T22:39:42.741Z,6.54
2016-03-10T22:40:42.713Z,6.46
2016-03-10T22:41:42.716Z,6.43
2016-03-10T22:42:42.702Z,6.37
2016-03-10T22:43:42.705Z,6.33
2016-03-10T22:44:42.691Z,6.36
2016-03-10T22:45:42.694Z,6.38
2016-03-10T22:46:42.682Z,6.38
2016-03-10T22:47:42.668Z,6.34
2016-03-10T22:48:42.671Z,6.31
2016-03-10T22:49:42.643Z,6.21
2016-03-10T22:50:42.645Z,6.19
2016-03-10T22:51:42.648Z,6.18
2016-03-10T22:52:42.634Z,6.18
2016-03-10T22:53:42.622Z,6.21
2016-03-10T22:54:42.609Z,6.27
2016-03-10T22:55:42.612Z,6.22
2016-03-10T22:56:42.615Z,6.21
2016-03-10T22:57:42.587Z,6.19
2016-03-10T22:58:42.573Z,6.28
2016-03-10T22:59:42.560Z,6.25
2016-03-10T23:00:42.579Z,6.22
2016-03-10T23:01:42.565Z,6.25
2016-03-10T23:02:42.553Z,6.27
2016-03-10T23:03:42.540Z,6.22
2016-03-10T23:04:42.542Z,6.21
2016-03-10T23:05:42.530Z,6.28
2016-03-10T23:06:42.516Z,6.28
2016-03-10T23:07:42.519Z,6.19
2016-03-10T23:08:42.491Z,6.22
2016-03-10T23:09:42.477Z,6.19
2016-03-10T23:10:42.480Z,6.15
2016-03-10T23:11:42.483Z,6.15
2016-03-10T23:12:44.080Z,6.15
2016-03-10T23:13:42.473Z,6.21
2016-03-10T23:14:43.632Z,6.25
2016-03-10T23:15:42.978Z,6.19